createdAt,value
2022-12-25T00:00:56.575Z,954.38
2022-12-25T00:01:56.459Z,954.65
2022-12-25T00:02:56.610Z,955.37
2022-12-25T00:03:56.652Z,955.75
2022-12-25T00:04:56.434Z,955.68
2022-12-25T00:05:56.429Z,955.43
2022-12-25T00:06:56.420Z,955.72
2022-12-25T00:07:56.423Z,956.49
2022-12-25T00:08:56.387Z,957.39
2022-12-25T00:09:56.385Z,956.69
2022-12-25T00:10:56.414Z,957.14
2022-12-25T00:11:56.348Z,957.13
2022-12-25T00:12:56.340Z,957.02
2022-12-25T00:13:56.354Z,957.20
2022-12-25T00:14:56.326Z,957.00
2022-12-25T00:15:56.390Z,957.10
2022-12-25T00:16:56.325Z,957.19
2022-12-25T00:17:56.304Z,956.94
2022-12-25T00:18:56.295Z,957.09
2022-12-25T00:19:56.257Z,957.00
2022-12-25T00:20:56.274Z,956.94
2022-12-25T00:21:56.255Z,957.03
2022-12-25T00:22:56.225Z,957.35
2022-12-25T00:23:56.255Z,956.95
2022-12-25T00:24:56.207Z,956.75
2022-12-25T00:25:56.207Z,956.25
2022-12-25T00:26:56.182Z,956.08
2022-12-25T00:27:56.176Z,955.93
2022-12-25T00:28:56.217Z,955.60
2022-12-25T00:29:56.187Z,955.14
2022-12-25T00:30:56.198Z,954.29
2022-12-25T00:31:56.193Z,954.53
2022-12-25T00:32:56.125Z,954.20
2022-12-25T00:33:56.119Z,953.63
2022-12-25T00:34:56.086Z,953.31
2022-12-25T00:35:56.101Z,954.16
2022-12-25T00:36:56.077Z,955.55
2022-12-25T00:37:56.066Z,955.78
2022-12-25T00:38:56.068Z,956.45
2022-12-25T00:39:56.037Z,956.70
2022-12-25T00:40:56.017Z,956.88
2022-12-25T00:41:56.033Z,956.74
2022-12-25T00:42:56.005Z,956.37
2022-12-25T00:43:55.999Z,955.77
2022-12-25T00:44:55.987Z,955.10
2022-12-25T00:45:56.035Z,953.65
2022-12-25T00:46:55.996Z,953.34
2022-12-25T00:47:55.945Z,953.06
2022-12-25T00:48:55.937Z,952.70
2022-12-25T00:49:55.930Z,952.11
2022-12-25T00:50:55.905Z,951.84
2022-12-25T00:51:55.932Z,952.29
2022-12-25T00:52:55.920Z,953.06
2022-12-25T00:53:55.877Z,953.31
2022-12-25T00:54:55.912Z,953.39
2022-12-25T00:55:55.864Z,953.58
2022-12-25T00:56:55.866Z,953.80
2022-12-25T00:57:55.818Z,953.49
2022-12-25T00:58:55.860Z,953.42
2022-12-25T00:59:55.823Z,953.46
2022-12-25T01:00:55.847Z,953.34
2022-12-25T01:01:55.856Z,952.90
2022-12-25T01:02:55.912Z,952.77
2022-12-25T01:03:55.761Z,951.00
2022-12-25T01:04:55.770Z,948.53
2022-12-25T01:05:55.738Z,946.36
2022-12-25T01:06:55.724Z,945.41
2022-12-25T01:07:55.709Z,943.65
2022-12-25T01:09:02.996Z,942.57
2022-12-25T01:09:55.710Z,941.56
2022-12-25T01:10:55.682Z,940.78
2022-12-25T01:11:55.686Z,940.09
2022-12-25T01:12:55.668Z,938.30
2022-12-25T01:13:55.687Z,936.18
2022-12-25T01:14:55.651Z,933.79
2022-12-25T01:15:55.637Z,932.17
2022-12-25T01:16:55.633Z,930.84
2022-12-25T01:17:55.601Z,930.20
2022-12-25T01:18:55.612Z,929.30
2022-12-25T01:19:55.625Z,928.83
2022-12-25T01:20:55.570Z,928.45
2022-12-25T01:21:55.565Z,928.20
2022-12-25T01:22:55.573Z,928.81
2022-12-25T01:23:55.529Z,928.29
2022-12-25T01:24:55.573Z,928.83
2022-12-25T01:25:55.526Z,929.01
2022-12-25T01:26:55.502Z,928.81
2022-12-25T01:27:55.480Z,929.03
2022-12-25T01:28:55.511Z,929.44
2022-12-25T01:29:55.480Z,929.56
2022-12-25T01:30:55.449Z,930.00
2022-12-25T01:31:55.533Z,930.75
2022-12-25T01:32:55.441Z,930.55
2022-12-25T01:33:55.430Z,930.91
2022-12-25T01:34:56.392Z,930.95
2022-12-25T01:35:55.416Z,930.99
2022-12-25T01:36:55.392Z,931.08
2022-12-25T01:37:55.378Z,930.55
2022-12-25T01:38:55.378Z,929.89
2022-12-25T01:39:55.382Z,929.42
2022-12-25T01:40:55.363Z,928.83
2022-12-25T01:41:55.417Z,928.42
2022-12-25T01:42:55.330Z,927.65
2022-12-25T01:43:55.315Z,926.96
2022-12-25T01:44:55.324Z,926.36
2022-12-25T01:45:55.357Z,925.51
2022-12-25T01:46:55.271Z,924.75
2022-12-25T01:47:55.340Z,923.71
2022-12-25T01:48:55.272Z,923.53
2022-12-25T01:49:55.290Z,922.44
2022-12-25T01:50:55.252Z,921.65
2022-12-25T01:51:55.223Z,920.57
2022-12-25T01:52:55.215Z,919.53
2022-12-25T01:53:55.206Z,918.98
2022-12-25T01:54:55.219Z,917.95
2022-12-25T01:55:55.210Z,917.19
2022-12-25T01:56:55.207Z,915.98
2022-12-25T01:57:55.154Z,915.63
2022-12-25T01:58:55.135Z,915.53
2022-12-25T01:59:55.144Z,915.14
2022-12-25T02:00:55.169Z,914.85
2022-12-25T02:01:55.296Z,914.77
2022-12-25T02:02:55.194Z,914.32
2022-12-25T02:03:55.118Z,914.20
2022-12-25T02:04:55.095Z,914.03
2022-12-25T02:05:55.071Z,913.83
2022-12-25T02:06:55.070Z,913.59
2022-12-25T02:07:55.056Z,913.87
2022-12-25T02:08:55.023Z,913.65
2022-12-25T02:09:55.036Z,912.90
2022-12-25T02:10:55.011Z,912.99
2022-12-25T02:11:54.995Z,912.19
2022-12-25T02:12:54.994Z,910.96
2022-12-25T02:13:54.987Z,910.37
2022-12-25T02:14:59.639Z,910.04
2022-12-25T02:15:55.945Z,909.66
2022-12-25T02:16:57.624Z,909.28
2022-12-25T02:17:54.950Z,908.83
2022-12-25T02:18:54.932Z,907.88
2022-12-25T02:19:54.916Z,906.89
2022-12-25T02:20:54.884Z,906.84
2022-12-25T02:21:54.897Z,906.65
2022-12-25T02:22:54.871Z,906.60
2022-12-25T02:23:54.859Z,906.37
2022-12-25T02:24:54.865Z,906.13
2022-12-25T02:25:54.859Z,906.13
2022-12-25T02:26:54.859Z,906.51
2022-12-25T02:27:54.825Z,906.56
2022-12-25T02:28:54.807Z,906.95
2022-12-25T02:29:54.807Z,906.71
2022-12-25T02:30:54.780Z,906.74
2022-12-25T02:31:54.892Z,906.65
2022-12-25T02:32:54.763Z,906.81
2022-12-25T02:33:54.741Z,906.71
2022-12-25T02:34:54.783Z,907.15
2022-12-25T02:35:54.724Z,907.58
2022-12-25T02:36:54.700Z,908.17
2022-12-25T02:37:54.716Z,908.50
2022-12-25T02:38:54.690Z,908.63
2022-12-25T02:39:54.708Z,909.19
2022-12-25T02:40:54.674Z,909.66
2022-12-25T02:41:54.695Z,909.90
2022-12-25T02:42:54.682Z,910.20
2022-12-25T02:43:54.620Z,910.55
2022-12-25T02:44:54.637Z,911.02
2022-12-25T02:45:54.637Z,911.60
2022-12-25T02:46:54.608Z,911.92
2022-12-25T02:47:54.597Z,913.17
2022-12-25T02:48:54.587Z,913.45
2022-12-25T02:49:54.595Z,913.71
2022-12-25T02:50:54.545Z,914.28
2022-12-25T02:51:54.542Z,915.17
2022-12-25T02:52:54.545Z,915.31
2022-12-25T02:53:54.521Z,915.83
2022-12-25T02:54:54.517Z,916.44
2022-12-25T02:55:54.495Z,917.25
2022-12-25T02:56:54.522Z,917.86
2022-12-25T02:57:55.248Z,918.16
2022-12-25T02:58:54.452Z,918.39
2022-12-25T02:59:54.460Z,918.77
2022-12-25T03:00:54.507Z,918.83
2022-12-25T03:01:54.537Z,919.45
2022-12-25T03:02:54.482Z,919.36
2022-12-25T03:03:54.423Z,919.61
2022-12-25T03:04:54.412Z,919.51
2022-12-25T03:05:54.391Z,918.92
2022-12-25T03:06:54.389Z,918.56
2022-12-25T03:07:54.367Z,918.32
2022-12-25T03:08:54.335Z,917.86
2022-12-25T03:09:54.347Z,917.69
2022-12-25T03:11:01.587Z,917.24
2022-12-25T03:11:54.307Z,916.61
2022-12-25T03:12:54.288Z,915.97
2022-12-25T03:13:54.284Z,915.03
2022-12-25T03:14:54.285Z,914.30
2022-12-25T03:15:54.274Z,913.99
2022-12-25T03:16:54.502Z,913.75
2022-12-25T03:17:54.247Z,913.79
2022-12-25T03:18:54.236Z,913.43
2022-12-25T03:19:54.223Z,912.79
2022-12-25T03:20:54.255Z,912.85
2022-12-25T03:21:54.208Z,913.03
2022-12-25T03:22:54.196Z,913.17
2022-12-25T03:23:54.195Z,912.80
2022-12-25T03:24:54.156Z,912.39
2022-12-25T03:25:54.173Z,912.18
2022-12-25T03:26:54.136Z,912.12
2022-12-25T03:27:54.132Z,911.72
2022-12-25T03:28:54.135Z,911.13
2022-12-25T03:29:54.136Z,910.95
2022-12-25T03:30:54.178Z,911.41
2022-12-25T03:31:54.111Z,911.42
2022-12-25T03:32:54.085Z,911.74
2022-12-25T03:33:54.059Z,912.06
2022-12-25T03:34:54.065Z,911.67
2022-12-25T03:35:54.075Z,911.87
2022-12-25T03:36:54.032Z,911.60
2022-12-25T03:37:54.037Z,911.58
2022-12-25T03:38:54.010Z,911.14
2022-12-25T03:39:54.009Z,911.18
2022-12-25T03:40:53.990Z,911.21
2022-12-25T03:41:53.987Z,911.20
2022-12-25T03:42:53.981Z,911.19
2022-12-25T03:43:53.965Z,911.95
2022-12-25T03:44:53.943Z,911.99
2022-12-25T03:45:53.965Z,912.02
2022-12-25T03:46:53.928Z,912.88
2022-12-25T03:47:53.921Z,913.07
2022-12-25T03:48:53.890Z,913.83
2022-12-25T03:49:53.901Z,914.91
2022-12-25T03:50:53.902Z,915.47
2022-12-25T03:51:53.859Z,916.41
2022-12-25T03:52:53.876Z,916.95
2022-12-25T03:53:53.843Z,917.61
2022-12-25T03:54:53.829Z,918.09
2022-12-25T03:55:53.839Z,919.07
2022-12-25T03:56:53.803Z,919.57
2022-12-25T03:57:53.808Z,919.75
2022-12-25T03:58:53.771Z,919.97
2022-12-25T03:59:53.789Z,920.44
2022-12-25T04:00:53.790Z,920.51
2022-12-25T04:01:53.855Z,920.34
2022-12-25T04:02:53.820Z,919.75
2022-12-25T04:03:53.735Z,919.53
2022-12-25T04:04:53.728Z,918.74
2022-12-25T04:05:53.727Z,918.57
2022-12-25T04:06:53.702Z,917.68
2022-12-25T04:07:53.715Z,917.40
2022-12-25T04:08:53.681Z,917.49
2022-12-25T04:09:53.661Z,917.31
2022-12-25T04:10:53.668Z,918.03
2022-12-25T04:11:58.755Z,918.14
2022-12-25T04:12:54.624Z,918.09
2022-12-25T04:13:53.622Z,917.67
2022-12-25T04:14:53.613Z,917.08
2022-12-25T04:15:53.621Z,916.62
2022-12-25T04:16:53.576Z,915.86
2022-12-25T04:17:53.591Z,915.40
2022-12-25T04:18:53.554Z,914.46
2022-12-25T04:19:53.539Z,913.53
2022-12-25T04:20:53.557Z,911.84
2022-12-25T04:21:53.532Z,911.01
2022-12-25T04:22:53.522Z,909.85
2022-12-25T04:23:53.503Z,909.08
2022-12-25T04:24:53.494Z,908.47
2022-12-25T04:25:53.492Z,907.77
2022-12-25T04:26:53.469Z,907.19
2022-12-25T04:27:53.466Z,906.98
2022-12-25T04:28:53.461Z,906.47
2022-12-25T04:29:53.439Z,905.98
2022-12-25T04:30:53.679Z,905.74
2022-12-25T04:31:53.416Z,905.40
2022-12-25T04:32:53.415Z,904.48
2022-12-25T04:33:53.378Z,904.25
2022-12-25T04:34:53.381Z,903.63
2022-12-25T04:35:53.373Z,903.47
2022-12-25T04:36:53.355Z,903.33
2022-12-25T04:37:53.338Z,902.93
2022-12-25T04:38:53.341Z,903.14
2022-12-25T04:39:53.315Z,902.94
2022-12-25T04:40:53.295Z,903.07
2022-12-25T04:41:53.323Z,903.30
2022-12-25T04:42:53.294Z,903.56
2022-12-25T04:43:53.325Z,903.05
2022-12-25T04:44:53.290Z,903.24
2022-12-25T04:45:53.304Z,903.55
2022-12-25T04:46:53.471Z,903.75
2022-12-25T04:47:53.288Z,904.19
2022-12-25T04:48:53.255Z,904.42
2022-12-25T04:49:53.226Z,904.70
2022-12-25T04:50:53.191Z,904.71
2022-12-25T04:51:53.219Z,904.53
2022-12-25T04:52:53.180Z,904.63
2022-12-25T04:53:53.163Z,904.84
2022-12-25T04:54:53.160Z,904.84
2022-12-25T04:55:53.139Z,904.94
2022-12-25T04:56:53.141Z,904.36
2022-12-25T04:57:53.132Z,904.16
2022-12-25T04:58:53.108Z,903.91
2022-12-25T04:59:53.104Z,904.28
2022-12-25T05:00:53.089Z,904.26
2022-12-25T05:01:53.179Z,904.11
2022-12-25T05:02:53.159Z,904.65
2022-12-25T05:03:53.116Z,905.09
2022-12-25T05:04:53.031Z,904.93
2022-12-25T05:05:53.031Z,904.26
2022-12-25T05:06:53.032Z,904.27
2022-12-25T05:07:53.274Z,904.53
2022-12-25T05:08:52.983Z,904.70
2022-12-25T05:09:53.010Z,905.15
2022-12-25T05:10:52.974Z,905.09
2022-12-25T05:11:52.953Z,904.58
2022-12-25T05:12:52.961Z,904.64
2022-12-25T05:13:52.920Z,904.89
2022-12-25T05:14:52.913Z,905.06
2022-12-25T05:15:52.911Z,904.97
2022-12-25T05:16:52.932Z,904.67
2022-12-25T05:17:52.874Z,905.05
2022-12-25T05:18:52.869Z,905.63
2022-12-25T05:19:52.862Z,905.81
2022-12-25T05:20:52.852Z,905.69
2022-12-25T05:21:52.842Z,905.41
2022-12-25T05:22:52.825Z,905.30
2022-12-25T05:23:52.823Z,905.27
2022-12-25T05:24:52.812Z,905.49
2022-12-25T05:25:52.782Z,905.33
2022-12-25T05:26:52.863Z,905.02
2022-12-25T05:27:54.125Z,905.27
2022-12-25T05:28:52.763Z,904.85
2022-12-25T05:29:52.741Z,904.29
2022-12-25T05:30:52.796Z,903.63
2022-12-25T05:31:52.772Z,902.69
2022-12-25T05:32:52.714Z,902.19
2022-12-25T05:33:52.770Z,901.46
2022-12-25T05:34:52.693Z,901.13
2022-12-25T05:35:52.682Z,901.00
2022-12-25T05:36:52.688Z,900.40
2022-12-25T05:37:52.659Z,900.06
2022-12-25T05:38:52.657Z,899.61
2022-12-25T05:39:52.629Z,899.45
2022-12-25T05:40:52.642Z,899.06
2022-12-25T05:41:52.674Z,898.97
2022-12-25T05:42:52.609Z,898.71
2022-12-25T05:43:52.599Z,897.71
2022-12-25T05:44:52.586Z,897.25
2022-12-25T05:45:52.620Z,897.09
2022-12-25T05:46:52.645Z,896.46
2022-12-25T05:47:52.548Z,896.05
2022-12-25T05:48:52.550Z,895.39
2022-12-25T05:49:52.532Z,894.82
2022-12-25T05:50:52.512Z,894.73
2022-12-25T05:51:52.548Z,894.66
2022-12-25T05:52:52.490Z,894.66
2022-12-25T05:53:52.471Z,894.48
2022-12-25T05:54:52.457Z,894.59
2022-12-25T05:55:52.471Z,894.60
2022-12-25T05:56:52.457Z,894.15
2022-12-25T05:57:52.428Z,894.36
2022-12-25T05:58:52.429Z,894.66
2022-12-25T05:59:52.407Z,894.29
2022-12-25T06:00:52.387Z,894.04
2022-12-25T06:01:52.528Z,893.82
2022-12-25T06:02:52.523Z,893.03
2022-12-25T06:03:52.420Z,892.49
2022-12-25T06:04:52.342Z,891.87
2022-12-25T06:05:52.341Z,891.92
2022-12-25T06:06:52.336Z,891.57
2022-12-25T06:07:52.318Z,891.66
2022-12-25T06:08:52.316Z,890.98
2022-12-25T06:09:52.314Z,890.91
2022-12-25T06:10:52.293Z,890.66
2022-12-25T06:11:52.277Z,890.89
2022-12-25T06:12:52.256Z,890.54
2022-12-25T06:13:52.292Z,890.33
2022-12-25T06:14:52.220Z,890.08
2022-12-25T06:15:52.293Z,889.79
2022-12-25T06:16:52.322Z,889.79
2022-12-25T06:17:52.193Z,889.76
2022-12-25T06:18:52.229Z,889.17
2022-12-25T06:19:52.186Z,889.21
2022-12-25T06:20:52.170Z,888.84
2022-12-25T06:21:52.195Z,888.68
2022-12-25T06:22:52.159Z,888.54
2022-12-25T06:23:52.237Z,888.25
2022-12-25T06:24:52.120Z,888.28
2022-12-25T06:25:52.119Z,888.29
2022-12-25T06:26:52.108Z,888.07
2022-12-25T06:27:52.124Z,887.56
2022-12-25T06:28:52.062Z,887.43
2022-12-25T06:29:52.076Z,887.08
2022-12-25T06:30:52.072Z,886.74
2022-12-25T06:31:52.081Z,886.74
2022-12-25T06:32:52.029Z,886.76
2022-12-25T06:33:52.017Z,886.82
2022-12-25T06:34:52.032Z,887.16
2022-12-25T06:35:52.011Z,887.44
2022-12-25T06:36:51.996Z,887.45
2022-12-25T06:37:51.992Z,887.44
2022-12-25T06:38:51.939Z,887.14
2022-12-25T06:39:51.944Z,887.01
2022-12-25T06:40:51.932Z,886.63
2022-12-25T06:41:51.913Z,886.50
2022-12-25T06:42:51.940Z,886.01
2022-12-25T06:43:51.943Z,885.96
2022-12-25T06:44:51.877Z,886.08
2022-12-25T06:45:51.944Z,886.34
2022-12-25T06:46:51.863Z,886.70
2022-12-25T06:47:51.856Z,887.49
2022-12-25T06:48:51.834Z,887.76
2022-12-25T06:49:51.824Z,887.94
2022-12-25T06:50:51.841Z,888.27
2022-12-25T06:51:51.804Z,888.26
2022-12-25T06:52:51.794Z,888.47
2022-12-25T06:53:51.865Z,888.68
2022-12-25T06:54:51.774Z,888.57
2022-12-25T06:55:51.751Z,888.22
2022-12-25T06:56:51.738Z,888.02
2022-12-25T06:57:51.764Z,887.70
2022-12-25T06:58:51.721Z,887.84
2022-12-25T06:59:55.340Z,887.83
2022-12-25T07:00:51.746Z,887.67
2022-12-25T07:01:51.891Z,887.58
2022-12-25T07:02:51.868Z,887.60
2022-12-25T07:03:51.663Z,887.62
2022-12-25T07:04:51.652Z,887.43
2022-12-25T07:05:51.660Z,887.22
2022-12-25T07:06:51.634Z,887.31
2022-12-25T07:07:51.628Z,887.46
2022-12-25T07:08:51.612Z,887.61
2022-12-25T07:09:51.595Z,887.68
2022-12-25T07:10:51.580Z,888.54
2022-12-25T07:11:51.576Z,888.79
2022-12-25T07:12:51.573Z,888.71
2022-12-25T07:13:51.548Z,888.91
2022-12-25T07:14:51.547Z,889.07
2022-12-25T07:15:51.554Z,888.81
2022-12-25T07:16:51.599Z,888.84
2022-12-25T07:17:51.501Z,888.53
2022-12-25T07:18:51.495Z,887.79
2022-12-25T07:19:51.505Z,887.82
2022-12-25T07:20:51.455Z,887.81
2022-12-25T07:21:51.451Z,887.60
2022-12-25T07:22:59.743Z,887.78
2022-12-25T07:23:58.694Z,887.73
2022-12-25T07:24:51.470Z,887.41
2022-12-25T07:25:51.404Z,887.06
2022-12-25T07:26:51.413Z,886.67
2022-12-25T07:27:51.416Z,886.92
2022-12-25T07:28:51.374Z,886.59
2022-12-25T07:29:51.398Z,886.40
2022-12-25T07:30:51.355Z,887.05
2022-12-25T07:31:51.402Z,887.23
2022-12-25T07:32:51.373Z,887.10
2022-12-25T07:33:51.314Z,887.48
2022-12-25T07:34:51.355Z,887.85
2022-12-25T07:35:51.323Z,887.19
2022-12-25T07:36:51.289Z,886.68
2022-12-25T07:37:51.294Z,886.39
2022-12-25T07:38:51.263Z,887.02
2022-12-25T07:39:51.323Z,886.49
2022-12-25T07:40:51.227Z,886.90
2022-12-25T07:41:51.359Z,886.81
2022-12-25T07:42:51.254Z,887.21
2022-12-25T07:43:51.211Z,887.02
2022-12-25T07:44:51.221Z,886.61
2022-12-25T07:45:51.254Z,886.44
2022-12-25T07:46:51.166Z,886.38
2022-12-25T07:47:54.943Z,885.96
2022-12-25T07:48:51.167Z,886.08
2022-12-25T07:49:51.198Z,885.83
2022-12-25T07:50:51.134Z,885.66
2022-12-25T07:51:51.128Z,885.64
2022-12-25T07:52:51.121Z,885.47
2022-12-25T07:53:51.100Z,885.83
2022-12-25T07:54:51.164Z,886.05
2022-12-25T07:55:51.109Z,886.26
2022-12-25T07:56:51.058Z,886.17
2022-12-25T07:57:51.054Z,885.88
2022-12-25T07:58:51.062Z,886.32
2022-12-25T07:59:51.050Z,886.86
2022-12-25T08:00:51.142Z,887.53
2022-12-25T08:01:51.261Z,888.13
2022-12-25T08:02:51.156Z,888.57
2022-12-25T08:03:51.150Z,889.10
2022-12-25T08:04:51.056Z,889.94
2022-12-25T08:05:50.968Z,889.81
2022-12-25T08:06:50.950Z,889.20
2022-12-25T08:07:56.942Z,888.23
2022-12-25T08:08:51.928Z,887.56
2022-12-25T08:09:50.988Z,887.23
2022-12-25T08:10:50.913Z,887.31
2022-12-25T08:11:50.921Z,887.82
2022-12-25T08:12:50.898Z,888.81
2022-12-25T08:13:50.925Z,890.37
2022-12-25T08:14:51.030Z,892.38
2022-12-25T08:15:50.861Z,894.48
2022-12-25T08:16:50.893Z,896.44
2022-12-25T08:17:50.812Z,896.80
2022-12-25T08:18:50.820Z,897.25
2022-12-25T08:19:50.826Z,897.65
2022-12-25T08:20:50.791Z,897.37
2022-12-25T08:21:50.802Z,896.46
2022-12-25T08:22:50.769Z,895.10
2022-12-25T08:23:50.765Z,893.62
2022-12-25T08:24:50.812Z,892.41
2022-12-25T08:25:50.776Z,890.47
2022-12-25T08:26:50.741Z,888.22
2022-12-25T08:27:50.702Z,887.17
2022-12-25T08:28:50.770Z,886.50
2022-12-25T08:29:50.742Z,885.76
2022-12-25T08:30:50.749Z,885.23
2022-12-25T08:31:50.668Z,885.11
2022-12-25T08:32:50.651Z,885.26
2022-12-25T08:33:50.663Z,886.18
2022-12-25T08:34:50.772Z,886.56
2022-12-25T08:35:50.631Z,886.36
2022-12-25T08:36:50.605Z,886.58
2022-12-25T08:37:50.592Z,887.06
2022-12-25T08:38:50.607Z,888.37
2022-12-25T08:39:50.599Z,889.53
2022-12-25T08:40:50.560Z,890.91
2022-12-25T08:41:50.553Z,892.18
2022-12-25T08:42:50.791Z,893.39
2022-12-25T08:43:50.533Z,894.30
2022-12-25T08:44:50.624Z,893.39
2022-12-25T08:45:50.543Z,891.49
2022-12-25T08:46:50.493Z,889.17
2022-12-25T08:47:50.497Z,887.00
2022-12-25T08:48:50.486Z,885.60
2022-12-25T08:49:50.552Z,884.14
2022-12-25T08:50:50.458Z,883.76
2022-12-25T08:51:50.538Z,884.01
2022-12-25T08:52:50.417Z,884.14
2022-12-25T08:53:50.415Z,885.15
2022-12-25T08:54:50.496Z,886.09
2022-12-25T08:55:50.394Z,886.49
2022-12-25T08:56:50.380Z,886.40
2022-12-25T08:57:50.384Z,886.41
2022-12-25T08:58:50.373Z,885.57
2022-12-25T08:59:50.493Z,884.70
2022-12-25T09:00:50.324Z,883.50
2022-12-25T09:01:50.386Z,882.88
2022-12-25T09:02:50.464Z,882.42
2022-12-25T09:03:50.367Z,882.55
2022-12-25T09:04:50.459Z,882.44
2022-12-25T09:05:50.277Z,882.77
2022-12-25T09:06:50.263Z,882.97
2022-12-25T09:07:50.246Z,883.37
2022-12-25T09:08:50.270Z,884.34
2022-12-25T09:09:50.353Z,885.34
2022-12-25T09:10:50.216Z,886.34
2022-12-25T09:11:50.212Z,888.16
2022-12-25T09:12:50.209Z,889.93
2022-12-25T09:13:50.249Z,890.89
2022-12-25T09:14:50.165Z,892.05
2022-12-25T09:15:50.192Z,893.35
2022-12-25T09:16:50.139Z,894.70
2022-12-25T09:17:50.128Z,895.40
2022-12-25T09:18:50.157Z,894.89
2022-12-25T09:19:50.239Z,893.00
2022-12-25T09:20:50.107Z,891.55
2022-12-25T09:21:50.104Z,892.52
2022-12-25T09:22:50.092Z,894.69
2022-12-25T09:23:50.089Z,898.19
2022-12-25T09:24:50.068Z,900.77
2022-12-25T09:25:50.048Z,902.00
2022-12-25T09:26:50.047Z,902.73
2022-12-25T09:27:50.015Z,903.14
2022-12-25T09:28:52.364Z,905.67
2022-12-25T09:29:50.075Z,910.58
2022-12-25T09:30:50.065Z,917.05
2022-12-25T09:31:49.978Z,922.91
2022-12-25T09:32:49.975Z,927.63
2022-12-25T09:33:49.960Z,931.87
2022-12-25T09:34:49.963Z,931.40
2022-12-25T09:35:49.930Z,924.75
2022-12-25T09:36:49.919Z,918.44
2022-12-25T09:37:49.915Z,913.80
2022-12-25T09:38:49.889Z,908.39
2022-12-25T09:39:50.000Z,902.53
2022-12-25T09:40:49.889Z,898.33
2022-12-25T09:41:49.861Z,897.21
2022-12-25T09:42:49.844Z,895.98
2022-12-25T09:43:49.872Z,893.82
2022-12-25T09:44:49.841Z,893.26
2022-12-25T09:45:49.840Z,894.53
2022-12-25T09:46:49.892Z,894.82
2022-12-25T09:47:49.799Z,895.81
2022-12-25T09:48:49.811Z,897.68
2022-12-25T09:49:49.782Z,897.53
2022-12-25T09:50:49.798Z,895.93
2022-12-25T09:51:49.760Z,896.14
2022-12-25T09:52:49.738Z,895.69
2022-12-25T09:53:49.739Z,893.21
2022-12-25T09:54:49.711Z,891.13
2022-12-25T09:55:49.707Z,889.36
2022-12-25T09:56:49.685Z,888.45
2022-12-25T09:57:49.692Z,888.96
2022-12-25T09:58:49.664Z,888.89
2022-12-25T09:59:49.714Z,888.13
2022-12-25T10:00:49.652Z,886.95
2022-12-25T10:01:49.767Z,885.80
2022-12-25T10:02:49.967Z,885.34
2022-12-25T10:03:49.706Z,884.38
2022-12-25T10:04:49.613Z,883.44
2022-12-25T10:05:49.592Z,882.77
2022-12-25T10:06:49.564Z,882.28
2022-12-25T10:07:49.575Z,881.82
2022-12-25T10:08:49.571Z,881.90
2022-12-25T10:09:49.563Z,881.97
2022-12-25T10:10:49.515Z,882.03
2022-12-25T10:11:49.542Z,882.31
2022-12-25T10:12:49.504Z,882.76
2022-12-25T10:13:49.524Z,884.03
2022-12-25T10:14:49.499Z,884.40
2022-12-25T10:15:49.515Z,885.10
2022-12-25T10:16:49.464Z,885.51
2022-12-25T10:17:49.478Z,886.56
2022-12-25T10:18:49.426Z,888.37
2022-12-25T10:19:49.435Z,889.63
2022-12-25T10:20:49.404Z,890.01
2022-12-25T10:21:49.410Z,890.05
2022-12-25T10:22:49.391Z,887.77
2022-12-25T10:23:49.376Z,886.75
2022-12-25T10:24:49.379Z,886.20
2022-12-25T10:25:49.363Z,885.59
2022-12-25T10:26:49.338Z,885.10
2022-12-25T10:27:49.326Z,885.14
2022-12-25T10:28:49.328Z,886.30
2022-12-25T10:29:49.328Z,888.57
2022-12-25T10:30:49.367Z,889.86
2022-12-25T10:31:49.306Z,888.81
2022-12-25T10:32:49.291Z,886.91
2022-12-25T10:33:49.282Z,886.61
2022-12-25T10:34:49.259Z,887.11
2022-12-25T10:35:49.245Z,885.96
2022-12-25T10:36:49.219Z,884.53
2022-12-25T10:37:49.216Z,883.65
2022-12-25T10:38:49.213Z,884.37
2022-12-25T10:39:49.223Z,885.06
2022-12-25T10:40:49.182Z,884.43
2022-12-25T10:41:49.158Z,884.67
2022-12-25T10:42:49.170Z,885.28
2022-12-25T10:43:49.171Z,886.84
2022-12-25T10:44:49.145Z,889.52
2022-12-25T10:45:49.151Z,892.54
2022-12-25T10:46:49.193Z,894.15
2022-12-25T10:47:54.965Z,893.95
2022-12-25T10:48:50.095Z,893.12
2022-12-25T10:49:49.099Z,892.04
2022-12-25T10:50:49.060Z,889.80
2022-12-25T10:51:49.047Z,887.61
2022-12-25T10:52:49.040Z,886.28
2022-12-25T10:53:49.035Z,884.95
2022-12-25T10:54:49.053Z,882.47
2022-12-25T10:55:49.000Z,880.53
2022-12-25T10:56:49.000Z,877.26
2022-12-25T10:57:48.982Z,875.31
2022-12-25T10:58:48.987Z,875.12
2022-12-25T10:59:49.031Z,876.38
2022-12-25T11:00:48.959Z,878.18
2022-12-25T11:01:52.358Z,880.42
2022-12-25T11:02:50.094Z,880.14
2022-12-25T11:03:48.948Z,879.72
2022-12-25T11:04:48.919Z,880.18
2022-12-25T11:05:48.881Z,881.58
2022-12-25T11:06:48.870Z,884.92
2022-12-25T11:07:48.866Z,888.56
2022-12-25T11:08:48.882Z,892.04
2022-12-25T11:09:48.841Z,894.25
2022-12-25T11:10:48.848Z,895.99
2022-12-25T11:11:48.814Z,897.03
2022-12-25T11:12:48.813Z,898.32
2022-12-25T11:13:48.802Z,899.46
2022-12-25T11:14:48.811Z,899.77
2022-12-25T11:15:48.811Z,900.38
2022-12-25T11:16:48.780Z,901.68
2022-12-25T11:17:48.748Z,904.37
2022-12-25T11:18:48.739Z,908.23
2022-12-25T11:19:48.739Z,912.31
2022-12-25T11:20:48.724Z,917.05
2022-12-25T11:21:48.712Z,921.57
2022-12-25T11:22:48.672Z,926.65
2022-12-25T11:23:48.676Z,933.45
2022-12-25T11:24:48.672Z,943.12
2022-12-25T11:25:48.927Z,954.59
2022-12-25T11:26:48.624Z,964.93
2022-12-25T11:27:51.969Z,972.93
2022-12-25T11:28:49.617Z,976.07
2022-12-25T11:29:48.607Z,971.38
2022-12-25T11:30:48.604Z,965.06
2022-12-25T11:31:48.640Z,954.36
2022-12-25T11:32:48.584Z,950.97
2022-12-25T11:33:48.550Z,954.04
2022-12-25T11:34:48.563Z,964.73
2022-12-25T11:35:48.536Z,961.04
2022-12-25T11:36:48.507Z,957.45
2022-12-25T11:37:48.512Z,950.35
2022-12-25T11:38:48.497Z,944.71
2022-12-25T11:39:48.487Z,934.02
2022-12-25T11:40:48.475Z,926.42
2022-12-25T11:41:48.467Z,922.42
2022-12-25T11:42:48.447Z,919.95
2022-12-25T11:43:48.445Z,920.23
2022-12-25T11:44:48.434Z,923.86
2022-12-25T11:45:48.457Z,925.14
2022-12-25T11:46:48.449Z,921.80
2022-12-25T11:47:48.387Z,912.28
2022-12-25T11:48:48.387Z,900.92
2022-12-25T11:49:50.188Z,896.49
2022-12-25T11:50:48.374Z,899.39
2022-12-25T11:51:48.347Z,904.12
2022-12-25T11:52:48.380Z,904.57
2022-12-25T11:53:48.320Z,898.40
2022-12-25T11:54:48.321Z,889.73
2022-12-25T11:55:48.295Z,881.42
2022-12-25T11:56:48.291Z,876.89
2022-12-25T11:57:48.272Z,877.12
2022-12-25T11:58:48.280Z,880.74
2022-12-25T11:59:48.296Z,887.15
2022-12-25T12:00:48.237Z,897.23
2022-12-25T12:01:48.383Z,910.91
2022-12-25T12:02:48.303Z,926.84
2022-12-25T12:03:48.255Z,939.25
2022-12-25T12:04:48.208Z,945.08
2022-12-25T12:05:48.197Z,943.88
2022-12-25T12:06:48.181Z,939.48
2022-12-25T12:07:48.163Z,932.71
2022-12-25T12:08:48.159Z,928.15
2022-12-25T12:09:48.184Z,924.77
2022-12-25T12:10:48.140Z,922.06
2022-12-25T12:11:48.125Z,918.43
2022-12-25T12:12:49.168Z,910.05
2022-12-25T12:13:48.101Z,897.21
2022-12-25T12:14:48.114Z,887.08
2022-12-25T12:15:48.081Z,878.00
2022-12-25T12:16:48.127Z,872.32
2022-12-25T12:17:48.056Z,866.85
2022-12-25T12:18:50.500Z,864.22
2022-12-25T12:19:48.060Z,861.86
2022-12-25T12:20:48.130Z,860.89
2022-12-25T12:21:48.007Z,861.27
2022-12-25T12:22:47.991Z,862.15
2022-12-25T12:23:47.978Z,863.44
2022-12-25T12:24:47.962Z,864.05
2022-12-25T12:25:47.953Z,864.63
2022-12-25T12:26:47.965Z,863.68
2022-12-25T12:27:47.931Z,862.23
2022-12-25T12:28:47.922Z,860.58